Portada
METAR-TAF:

METAR-TAF

Aeropuertos :

Aeropuerto Internacional de Chongqing-Jiangbei

Chongqing, China

latitud: 29-31N, longitud: 106-29E, altitud: 351 m

Observación

El informe se hizo hace 58 minutos, a las 11:00 UTC
Viento 4 kt del sureste
Temperatura 10°C
Humedad 93%
Presión 1028 hPa
Visibilidad: 2300 m
Nubes dispersas a una altura de 2600 ft
neblina

METAR: ZUCK 211100Z 14002MPS 2300 BR SCT026 10/09 Q1028 BECMG TL1140 3000

Hora: 19:58 (11:58 UTC)

Pronóstico

El informe se hizo hace 2 horas y 56 minutos, a las 09:02 UTC
Pronóstico válido del 21 a las 12 UTC al 22 a las 12 UTC
Viento 6 kt del sur-suroeste
Visibilidad: 3000 m
Cielo cubierto a una altura de 4000 ft
neblina

TAF: ZUCK 210902Z 2112/2212 20003MPS 3000 BR OVC040 TX11/2207Z TN08/2122Z

Observaciones y pronósticos meteorológicos de más de 4000 aeropuertos (mensajes METAR y TAF).

Los puntos amarillos y rojos representan las estaciones disponibles.

Ponga el ratón en el punto deseado para ver el nombre de la estación.

Haga clic para ver las observaciones y los pronósticos meteorológicos.

Para cambiar el mapa : haga clic en los botones verdes con una cruz de color negro para hacer un zoom, en el botón verde con un guión para alejar o en las flechas verdes para mapas adyacentes.


METAR-TAF: